sensor_id;sensor_type;location;lat;lon;timestamp;P1;durP1;ratioP1;P2;durP2;ratioP2
61675;SDS011;47574;52.090;5.244;2023-03-14T00:01:27;24.5;;;6.0;;
61675;SDS011;47574;52.090;5.244;2023-03-14T00:03:03;28.5;;;6.9;;
61675;SDS011;47574;52.090;5.244;2023-03-14T00:06:16;27.3;;;6.0;;
61675;SDS011;47574;52.090;5.244;2023-03-14T00:07:52;26.3;;;6.6;;
61675;SDS011;47574;52.090;5.244;2023-03-14T00:09:29;28.0;;;6.6;;
61675;SDS011;47574;52.090;5.244;2023-03-14T00:11:05;30.9;;;6.6;;
61675;SDS011;47574;52.090;5.244;2023-03-14T00:14:20;25.0;;;6.0;;
61675;SDS011;47574;52.090;5.244;2023-03-14T00:16:00;23.4;;;5.8;;
61675;SDS011;47574;52.090;5.244;2023-03-14T00:17:38;24.7;;;6.2;;
61675;SDS011;47574;52.090;5.244;2023-03-14T00:20:51;29.2;;;6.4;;
61675;SDS011;47574;52.090;5.244;2023-03-14T00:22:28;27.9;;;6.4;;
61675;SDS011;47574;52.090;5.244;2023-03-14T00:24:06;25.8;;;5.9;;
61675;SDS011;47574;52.090;5.244;2023-03-14T00:25:43;26.2;;;5.7;;
61675;SDS011;47574;52.090;5.244;2023-03-14T00:28:55;24.3;;;5.8;;
61675;SDS011;47574;52.090;5.244;2023-03-14T00:30:31;22.2;;;5.11;;
61675;SDS011;47574;52.090;5.244;2023-03-14T00:32:07;21.2;;;4.91;;
61675;SDS011;47574;52.090;5.244;2023-03-14T00:35:20;18.8;;;4.7;;
61675;SDS011;47574;52.090;5.244;2023-03-14T00:36:56;17.41;;;4.3;;
61675;SDS011;47574;52.090;5.244;2023-03-14T00:38:33;18.41;;;4.0;;
61675;SDS011;47574;52.090;5.244;2023-03-14T00:41:46;15.2;;;3.8;;
61675;SDS011;47574;52.090;5.244;2023-03-14T00:43:22;15.7;;;3.5;;
61675;SDS011;47574;52.090;5.244;2023-03-14T00:44:59;14.7;;;3.4;;
61675;SDS011;47574;52.090;5.244;2023-03-14T00:46:35;13.4;;;3.4;;
61675;SDS011;47574;52.090;5.244;2023-03-14T00:49:47;17.61;;;3.2;;
61675;SDS011;47574;52.090;5.244;2023-03-14T00:51:23;13.0;;;2.9;;
61675;SDS011;47574;52.090;5.244;2023-03-14T00:53:00;14.1;;;2.8;;
61675;SDS011;47574;52.090;5.244;2023-03-14T00:56:12;14.3;;;2.5;;
61675;SDS011;47574;52.090;5.244;2023-03-14T00:57:49;15.3;;;3.2;;
61675;SDS011;47574;52.090;5.244;2023-03-14T00:59:25;13.0;;;3.5;;
61675;SDS011;47574;52.090;5.244;2023-03-14T01:02:41;11.5;;;3.0;;
61675;SDS011;47574;52.090;5.244;2023-03-14T01:04:19;16.4;;;3.6;;
61675;SDS011;47574;52.090;5.244;2023-03-14T01:06:05;16.0;;;3.4;;
61675;SDS011;47574;52.090;5.244;2023-03-14T01:07:42;16.3;;;3.3;;
61675;SDS011;47574;52.090;5.244;2023-03-14T01:10:54;16.5;;;3.6;;
61675;SDS011;47574;52.090;5.244;2023-03-14T01:12:30;13.1;;;3.6;;
61675;SDS011;47574;52.090;5.244;2023-03-14T01:14:06;12.4;;;3.2;;
61675;SDS011;47574;52.090;5.244;2023-03-14T01:17:19;13.5;;;3.3;;
61675;SDS011;47574;52.090;5.244;2023-03-14T01:18:55;12.7;;;3.2;;
61675;SDS011;47574;52.090;5.244;2023-03-14T01:20:31;12.0;;;3.3;;
61675;SDS011;47574;52.090;5.244;2023-03-14T01:23:44;13.2;;;3.2;;
61675;SDS011;47574;52.090;5.244;2023-03-14T01:25:21;10.0;;;2.8;;
61675;SDS011;47574;52.090;5.244;2023-03-14T01:26:57;10.7;;;2.8;;
61675;SDS011;47574;52.090;5.244;2023-03-14T01:28:34;10.7;;;2.8;;
61675;SDS011;47574;52.090;5.244;2023-03-14T01:31:49;11.1;;;2.7;;
61675;SDS011;47574;52.090;5.244;2023-03-14T01:33:25;11.3;;;3.0;;
61675;SDS011;47574;52.090;5.244;2023-03-14T01:35:01;13.7;;;3.3;;
61675;SDS011;47574;52.090;5.244;2023-03-14T01:38:14;12.3;;;3.0;;
61675;SDS011;47574;52.090;5.244;2023-03-14T01:39:49;13.4;;;3.3;;
61675;SDS011;47574;52.090;5.244;2023-03-14T01:41:26;13.9;;;3.5;;
61675;SDS011;47574;52.090;5.244;2023-03-14T01:44:51;12.7;;;3.2;;
61675;SDS011;47574;52.090;5.244;2023-03-14T01:46:32;13.7;;;3.0;;
61675;SDS011;47574;52.090;5.244;2023-03-14T01:48:12;15.3;;;3.1;;
61675;SDS011;47574;52.090;5.244;2023-03-14T01:49:49;13.5;;;3.4;;
61675;SDS011;47574;52.090;5.244;2023-03-14T02:03:05;13.2;;;2.4;;
61675;SDS011;47574;52.090;5.244;2023-03-14T02:35:33;10.9;;;2.4;;
61675;SDS011;47574;52.090;5.244;2023-03-14T02:38:58;10.8;;;2.6;;
61675;SDS011;47574;52.090;5.244;2023-03-14T02:40:42;9.1;;;2.5;;
61675;SDS011;47574;52.090;5.244;2023-03-14T02:42:19;11.2;;;2.31;;
61675;SDS011;47574;52.090;5.244;2023-03-14T02:43:57;11.8;;;2.6;;
61675;SDS011;47574;52.090;5.244;2023-03-14T02:47:18;11.6;;;2.9;;
61675;SDS011;47574;52.090;5.244;2023-03-14T02:48:59;9.21;;;2.4;;
61675;SDS011;47574;52.090;5.244;2023-03-14T02:50:40;10.8;;;2.7;;
61675;SDS011;47574;52.090;5.244;2023-03-14T02:52:17;10.6;;;2.5;;
61675;SDS011;47574;52.090;5.244;2023-03-14T02:55:29;10.5;;;2.5;;
61675;SDS011;47574;52.090;5.244;2023-03-14T02:57:05;14.8;;;3.1;;
61675;SDS011;47574;52.090;5.244;2023-03-14T02:58:41;10.1;;;2.6;;
61675;SDS011;47574;52.090;5.244;2023-03-14T03:01:55;10.5;;;2.7;;
61675;SDS011;47574;52.090;5.244;2023-03-14T03:03:31;12.7;;;2.8;;
61675;SDS011;47574;52.090;5.244;2023-03-14T03:05:07;10.5;;;2.7;;
61675;SDS011;47574;52.090;5.244;2023-03-14T03:08:20;14.2;;;3.0;;
61675;SDS011;47574;52.090;5.244;2023-03-14T03:09:57;8.0;;;2.5;;
61675;SDS011;47574;52.090;5.244;2023-03-14T03:11:33;10.4;;;3.4;;
61675;SDS011;47574;52.090;5.244;2023-03-14T03:13:09;13.7;;;2.9;;
61675;SDS011;47574;52.090;5.244;2023-03-14T03:16:22;10.21;;;2.8;;
61675;SDS011;47574;52.090;5.244;2023-03-14T03:17:58;11.1;;;3.0;;
61675;SDS011;47574;52.090;5.244;2023-03-14T03:19:34;12.9;;;3.0;;
61675;SDS011;47574;52.090;5.244;2023-03-14T03:22:47;8.31;;;2.7;;
61675;SDS011;47574;52.090;5.244;2023-03-14T03:24:23;11.3;;;2.8;;
61675;SDS011;47574;52.090;5.244;2023-03-14T03:26:00;11.0;;;2.7;;
61675;SDS011;47574;52.090;5.244;2023-03-14T03:29:13;11.0;;;3.1;;
61675;SDS011;47574;52.090;5.244;2023-03-14T03:30:49;10.0;;;2.6;;
61675;SDS011;47574;52.090;5.244;2023-03-14T03:32:26;11.1;;;3.1;;
61675;SDS011;47574;52.090;5.244;2023-03-14T03:34:03;12.6;;;3.0;;
61675;SDS011;47574;52.090;5.244;2023-03-14T03:37:20;10.5;;;2.9;;
61675;SDS011;47574;52.090;5.244;2023-03-14T03:38:56;15.0;;;2.9;;
61675;SDS011;47574;52.090;5.244;2023-03-14T03:40:32;10.5;;;2.8;;
61675;SDS011;47574;52.090;5.244;2023-03-14T03:43:44;13.4;;;3.2;;
61675;SDS011;47574;52.090;5.244;2023-03-14T03:45:21;11.3;;;3.0;;
61675;SDS011;47574;52.090;5.244;2023-03-14T03:46:57;14.1;;;3.5;;
61675;SDS011;47574;52.090;5.244;2023-03-14T03:50:10;12.0;;;3.1;;
61675;SDS011;47574;52.090;5.244;2023-03-14T03:51:46;10.6;;;3.1;;
61675;SDS011;47574;52.090;5.244;2023-03-14T03:53:22;12.6;;;3.1;;
61675;SDS011;47574;52.090;5.244;2023-03-14T03:54:58;14.4;;;3.3;;
61675;SDS011;47574;52.090;5.244;2023-03-14T03:58:11;11.8;;;2.9;;
61675;SDS011;47574;52.090;5.244;2023-03-14T03:59:47;14.0;;;3.2;;
61675;SDS011;47574;52.090;5.244;2023-03-14T04:01:23;12.3;;;3.1;;
61675;SDS011;47574;52.090;5.244;2023-03-14T04:04:35;13.3;;;2.9;;
61675;SDS011;47574;52.090;5.244;2023-03-14T04:07:48;13.0;;;2.7;;
61675;SDS011;47574;52.090;5.244;2023-03-14T04:11:01;12.0;;;2.8;;
61675;SDS011;47574;52.090;5.244;2023-03-14T04:12:39;12.1;;;2.8;;
61675;SDS011;47574;52.090;5.244;2023-03-14T04:14:15;14.0;;;3.2;;
61675;SDS011;47574;52.090;5.244;2023-03-14T04:15:51;12.0;;;2.8;;
61675;SDS011;47574;52.090;5.244;2023-03-14T04:19:04;14.0;;;3.6;;
61675;SDS011;47574;52.090;5.244;2023-03-14T04:20:40;12.3;;;2.9;;
61675;SDS011;47574;52.090;5.244;2023-03-14T04:22:17;11.3;;;2.8;;
61675;SDS011;47574;52.090;5.244;2023-03-14T04:25:30;14.3;;;3.0;;
61675;SDS011;47574;52.090;5.244;2023-03-14T04:27:06;11.2;;;3.1;;
61675;SDS011;47574;52.090;5.244;2023-03-14T04:28:42;13.2;;;3.2;;
61675;SDS011;47574;52.090;5.244;2023-03-14T04:31:55;14.3;;;3.2;;
61675;SDS011;47574;52.090;5.244;2023-03-14T04:33:31;13.9;;;3.4;;
61675;SDS011;47574;52.090;5.244;2023-03-14T04:35:08;11.8;;;3.3;;
61675;SDS011;47574;52.090;5.244;2023-03-14T04:36:44;16.11;;;3.3;;
61675;SDS011;47574;52.090;5.244;2023-03-14T04:39:56;14.6;;;3.1;;
61675;SDS011;47574;52.090;5.244;2023-03-14T04:41:32;12.2;;;3.0;;
61675;SDS011;47574;52.090;5.244;2023-03-14T04:43:09;12.2;;;3.0;;
61675;SDS011;47574;52.090;5.244;2023-03-14T04:46:22;12.2;;;3.0;;
61675;SDS011;47574;52.090;5.244;2023-03-14T04:47:59;11.8;;;2.8;;
61675;SDS011;47574;52.090;5.244;2023-03-14T04:49:35;9.71;;;3.1;;
61675;SDS011;47574;52.090;5.244;2023-03-14T04:52:47;11.5;;;3.2;;
61675;SDS011;47574;52.090;5.244;2023-03-14T04:54:23;12.1;;;2.8;;
61675;SDS011;47574;52.090;5.244;2023-03-14T04:55:59;10.8;;;2.9;;
61675;SDS011;47574;52.090;5.244;2023-03-14T04:59:12;12.0;;;2.7;;
61675;SDS011;47574;52.090;5.244;2023-03-14T05:00:49;10.21;;;2.5;;
61675;SDS011;47574;52.090;5.244;2023-03-14T05:02:26;11.3;;;2.6;;
61675;SDS011;47574;52.090;5.244;2023-03-14T05:04:02;9.21;;;2.7;;
61675;SDS011;47574;52.090;5.244;2023-03-14T05:07:14;11.1;;;3.1;;
61675;SDS011;47574;52.090;5.244;2023-03-14T05:08:50;11.0;;;3.1;;
61675;SDS011;47574;52.090;5.244;2023-03-14T05:10:26;8.2;;;2.4;;
61675;SDS011;47574;52.090;5.244;2023-03-14T05:13:39;7.6;;;2.4;;
61675;SDS011;47574;52.090;5.244;2023-03-14T05:15:15;10.0;;;2.9;;
61675;SDS011;47574;52.090;5.244;2023-03-14T05:16:51;10.5;;;2.7;;
61675;SDS011;47574;52.090;5.244;2023-03-14T05:20:03;10.8;;;2.7;;
61675;SDS011;47574;52.090;5.244;2023-03-14T05:21:40;9.6;;;3.1;;
61675;SDS011;47574;52.090;5.244;2023-03-14T05:23:16;10.9;;;2.8;;
61675;SDS011;47574;52.090;5.244;2023-03-14T05:24:52;9.6;;;2.7;;
61675;SDS011;47574;52.090;5.244;2023-03-14T05:28:06;9.71;;;3.1;;
61675;SDS011;47574;52.090;5.244;2023-03-14T05:29:42;7.8;;;2.8;;
61675;SDS011;47574;52.090;5.244;2023-03-14T05:31:18;11.0;;;3.0;;
61675;SDS011;47574;52.090;5.244;2023-03-14T05:34:30;7.8;;;2.7;;
61675;SDS011;47574;52.090;5.244;2023-03-14T05:36:07;6.8;;;2.8;;
61675;SDS011;47574;52.090;5.244;2023-03-14T05:37:43;11.6;;;3.4;;
61675;SDS011;47574;52.090;5.244;2023-03-14T05:40:56;9.81;;;3.2;;
61675;SDS011;47574;52.090;5.244;2023-03-14T05:42:33;8.9;;;3.6;;
61675;SDS011;47574;52.090;5.244;2023-03-14T05:44:09;11.3;;;3.7;;
61675;SDS011;47574;52.090;5.244;2023-03-14T05:47:21;13.1;;;3.8;;
61675;SDS011;47574;52.090;5.244;2023-03-14T05:48:57;11.3;;;3.8;;
61675;SDS011;47574;52.090;5.244;2023-03-14T05:50:35;8.5;;;4.2;;
61675;SDS011;47574;52.090;5.244;2023-03-14T05:52:11;11.4;;;5.0;;
61675;SDS011;47574;52.090;5.244;2023-03-14T05:55:24;12.7;;;5.9;;
61675;SDS011;47574;52.090;5.244;2023-03-14T05:57:01;9.5;;;5.2;;
61675;SDS011;47574;52.090;5.244;2023-03-14T05:58:37;10.8;;;5.6;;
61675;SDS011;47574;52.090;5.244;2023-03-14T06:01:50;11.4;;;6.0;;
61675;SDS011;47574;52.090;5.244;2023-03-14T06:03:26;11.2;;;6.3;;
61675;SDS011;47574;52.090;5.244;2023-03-14T06:05:03;11.7;;;6.5;;
61675;SDS011;47574;52.090;5.244;2023-03-14T06:08:17;10.9;;;6.5;;
61675;SDS011;47574;52.090;5.244;2023-03-14T06:09:53;10.0;;;6.6;;
61675;SDS011;47574;52.090;5.244;2023-03-14T06:11:29;12.3;;;6.7;;
61675;SDS011;47574;52.090;5.244;2023-03-14T06:13:05;11.3;;;7.0;;
61675;SDS011;47574;52.090;5.244;2023-03-14T06:16:17;9.81;;;7.1;;
61675;SDS011;47574;52.090;5.244;2023-03-14T06:17:53;12.0;;;7.0;;
61675;SDS011;47574;52.090;5.244;2023-03-14T06:19:30;11.4;;;7.5;;
61675;SDS011;47574;52.090;5.244;2023-03-14T06:22:44;11.7;;;7.7;;
61675;SDS011;47574;52.090;5.244;2023-03-14T06:24:20;12.4;;;7.8;;
61675;SDS011;47574;52.090;5.244;2023-03-14T06:25:56;12.6;;;8.5;;
61675;SDS011;47574;52.090;5.244;2023-03-14T06:30:45;12.7;;;8.9;;
61675;SDS011;47574;52.090;5.244;2023-03-14T06:32:21;10.4;;;6.3;;
61675;SDS011;47574;52.090;5.244;2023-03-14T06:33:58;9.4;;;4.41;;
61675;SDS011;47574;52.090;5.244;2023-03-14T06:37:11;7.3;;;2.7;;
61675;SDS011;47574;52.090;5.244;2023-03-14T06:38:47;3.4;;;1.5;;
61675;SDS011;47574;52.090;5.244;2023-03-14T06:40:23;3.2;;;1.4;;
61675;SDS011;47574;52.090;5.244;2023-03-14T06:43:35;3.8;;;1.5;;
61675;SDS011;47574;52.090;5.244;2023-03-14T06:45:12;3.3;;;1.0;;
61675;SDS011;47574;52.090;5.244;2023-03-14T06:46:48;2.8;;;0.8;;
61675;SDS011;47574;52.090;5.244;2023-03-14T06:50:01;2.5;;;0.9;;
61675;SDS011;47574;52.090;5.244;2023-03-14T06:51:40;2.0;;;0.9;;
61675;SDS011;47574;52.090;5.244;2023-03-14T06:53:16;2.1;;;0.6;;
61675;SDS011;47574;52.090;5.244;2023-03-14T06:54:52;1.9;;;0.6;;
61675;SDS011;47574;52.090;5.244;2023-03-14T06:58:04;2.9;;;1.2;;
61675;SDS011;47574;52.090;5.244;2023-03-14T06:59:41;4.41;;;0.8;;
61675;SDS011;47574;52.090;5.244;2023-03-14T07:01:19;2.5;;;0.8;;
61675;SDS011;47574;52.090;5.244;2023-03-14T07:04:34;1.6;;;0.6;;
61675;SDS011;47574;52.090;5.244;2023-03-14T07:06:10;1.6;;;0.6;;
61675;SDS011;47574;52.090;5.244;2023-03-14T07:07:46;5.11;;;1.0;;
61675;SDS011;47574;52.090;5.244;2023-03-14T07:10:59;2.0;;;0.7;;
61675;SDS011;47574;52.090;5.244;2023-03-14T07:12:35;2.8;;;0.9;;
61675;SDS011;47574;52.090;5.244;2023-03-14T07:14:11;2.21;;;1.2;;
61675;SDS011;47574;52.090;5.244;2023-03-14T07:15:47;2.5;;;1.0;;
61675;SDS011;47574;52.090;5.244;2023-03-14T07:18:59;3.6;;;1.11;;
61675;SDS011;47574;52.090;5.244;2023-03-14T07:20:36;4.0;;;1.3;;
61675;SDS011;47574;52.090;5.244;2023-03-14T07:22:12;3.0;;;1.2;;
61675;SDS011;47574;52.090;5.244;2023-03-14T07:25:25;5.6;;;1.2;;
61675;SDS011;47574;52.090;5.244;2023-03-14T07:27:02;4.61;;;1.2;;
61675;SDS011;47574;52.090;5.244;2023-03-14T07:28:38;3.9;;;1.2;;
61675;SDS011;47574;52.090;5.244;2023-03-14T07:31:50;4.3;;;1.2;;
61675;SDS011;47574;52.090;5.244;2023-03-14T07:33:26;6.2;;;1.4;;
61675;SDS011;47574;52.090;5.244;2023-03-14T07:35:03;3.7;;;1.5;;
61675;SDS011;47574;52.090;5.244;2023-03-14T07:36:40;3.2;;;1.2;;
61675;SDS011;47574;52.090;5.244;2023-03-14T07:39:52;1.7;;;1.0;;
61675;SDS011;47574;52.090;5.244;2023-03-14T07:41:28;3.4;;;1.2;;
61675;SDS011;47574;52.090;5.244;2023-03-14T07:43:04;3.2;;;1.2;;
61675;SDS011;47574;52.090;5.244;2023-03-14T07:46:17;3.1;;;1.2;;
61675;SDS011;47574;52.090;5.244;2023-03-14T07:47:52;3.7;;;1.2;;
61675;SDS011;47574;52.090;5.244;2023-03-14T07:49:28;3.1;;;1.2;;
61675;SDS011;47574;52.090;5.244;2023-03-14T07:52:41;3.4;;;1.2;;
61675;SDS011;47574;52.090;5.244;2023-03-14T07:54:17;3.5;;;1.3;;
61675;SDS011;47574;52.090;5.244;2023-03-14T07:55:53;3.3;;;1.2;;
61675;SDS011;47574;52.090;5.244;2023-03-14T07:59:05;3.9;;;1.0;;
61675;SDS011;47574;52.090;5.244;2023-03-14T08:00:41;3.8;;;1.11;;
61675;SDS011;47574;52.090;5.244;2023-03-14T08:02:19;3.0;;;0.9;;
61675;SDS011;47574;52.090;5.244;2023-03-14T08:03:55;4.0;;;1.11;;
61675;SDS011;47574;52.090;5.244;2023-03-14T08:07:10;4.41;;;0.9;;
61675;SDS011;47574;52.090;5.244;2023-03-14T08:08:46;4.61;;;0.9;;
61675;SDS011;47574;52.090;5.244;2023-03-14T08:10:22;5.0;;;1.11;;
61675;SDS011;47574;52.090;5.244;2023-03-14T08:13:35;4.91;;;1.0;;
61675;SDS011;47574;52.090;5.244;2023-03-14T08:15:13;5.7;;;1.11;;
61675;SDS011;47574;52.090;5.244;2023-03-14T08:16:49;5.7;;;1.2;;
61675;SDS011;47574;52.090;5.244;2023-03-14T08:20:02;3.5;;;0.7;;
61675;SDS011;47574;52.090;5.244;2023-03-14T08:21:40;2.4;;;0.6;;
61675;SDS011;47574;52.090;5.244;2023-03-14T08:23:15;4.5;;;1.0;;
61675;SDS011;47574;52.090;5.244;2023-03-14T08:24:51;2.5;;;0.7;;
61675;SDS011;47574;52.090;5.244;2023-03-14T08:28:04;3.7;;;0.7;;
61675;SDS011;47574;52.090;5.244;2023-03-14T08:29:40;3.6;;;0.6;;
61675;SDS011;47574;52.090;5.244;2023-03-14T08:31:17;2.9;;;0.7;;
61675;SDS011;47574;52.090;5.244;2023-03-14T08:34:32;3.6;;;0.6;;
61675;SDS011;47574;52.090;5.244;2023-03-14T08:36:09;4.3;;;0.7;;
61675;SDS011;47574;52.090;5.244;2023-03-14T08:37:46;4.1;;;1.0;;
61675;SDS011;47574;52.090;5.244;2023-03-14T08:40:59;3.6;;;0.6;;
61675;SDS011;47574;52.090;5.244;2023-03-14T08:42:37;5.7;;;1.11;;
61675;SDS011;47574;52.090;5.244;2023-03-14T08:44:14;5.0;;;1.11;;
61675;SDS011;47574;52.090;5.244;2023-03-14T08:45:50;2.5;;;0.9;;
61675;SDS011;47574;52.090;5.244;2023-03-14T08:49:02;5.6;;;1.0;;
61675;SDS011;47574;52.090;5.244;2023-03-14T08:50:40;4.61;;;1.11;;
61675;SDS011;47574;52.090;5.244;2023-03-14T08:52:16;4.3;;;1.11;;
61675;SDS011;47574;52.090;5.244;2023-03-14T08:55:28;4.2;;;0.8;;
61675;SDS011;47574;52.090;5.244;2023-03-14T08:57:04;7.2;;;1.11;;
61675;SDS011;47574;52.090;5.244;2023-03-14T08:58:41;5.0;;;0.9;;
61675;SDS011;47574;52.090;5.244;2023-03-14T09:01:55;7.2;;;1.11;;
61675;SDS011;47574;52.090;5.244;2023-03-14T09:03:31;6.7;;;1.3;;
61675;SDS011;47574;52.090;5.244;2023-03-14T09:05:07;6.7;;;1.3;;
61675;SDS011;47574;52.090;5.244;2023-03-14T09:06:44;7.3;;;1.6;;
61675;SDS011;47574;52.090;5.244;2023-03-14T09:09:56;8.9;;;1.9;;
61675;SDS011;47574;52.090;5.244;2023-03-14T09:11:33;9.31;;;2.0;;
61675;SDS011;47574;52.090;5.244;2023-03-14T09:13:09;14.8;;;2.1;;
61675;SDS011;47574;52.090;5.244;2023-03-14T09:16:21;13.5;;;2.1;;
61675;SDS011;47574;52.090;5.244;2023-03-14T09:17:57;13.6;;;2.21;;
61675;SDS011;47574;52.090;5.244;2023-03-14T09:19:33;14.9;;;2.7;;
61675;SDS011;47574;52.090;5.244;2023-03-14T09:22:45;17.2;;;2.8;;
61675;SDS011;47574;52.090;5.244;2023-03-14T09:24:21;13.8;;;2.7;;
61675;SDS011;47574;52.090;5.244;2023-03-14T09:25:57;14.5;;;2.6;;
61675;SDS011;47574;52.090;5.244;2023-03-14T09:27:35;13.7;;;2.6;;
61675;SDS011;47574;52.090;5.244;2023-03-14T09:30:47;17.8;;;3.1;;
61675;SDS011;47574;52.090;5.244;2023-03-14T09:32:23;18.5;;;3.4;;
61675;SDS011;47574;52.090;5.244;2023-03-14T09:33:59;20.41;;;3.4;;
61675;SDS011;47574;52.090;5.244;2023-03-14T09:37:12;20.2;;;3.2;;
61675;SDS011;47574;52.090;5.244;2023-03-14T09:38:48;17.5;;;3.0;;
61675;SDS011;47574;52.090;5.244;2023-03-14T09:40:24;17.0;;;3.0;;
61675;SDS011;47574;52.090;5.244;2023-03-14T09:43:51;23.1;;;3.7;;
61675;SDS011;47574;52.090;5.244;2023-03-14T09:45:39;16.11;;;3.1;;
61675;SDS011;47574;52.090;5.244;2023-03-14T09:47:17;19.8;;;3.4;;
61675;SDS011;47574;52.090;5.244;2023-03-14T09:48:54;17.5;;;3.7;;
61675;SDS011;47574;52.090;5.244;2023-03-14T09:52:14;18.7;;;3.2;;
61675;SDS011;47574;52.090;5.244;2023-03-14T09:53:55;23.2;;;3.7;;
61675;SDS011;47574;52.090;5.244;2023-03-14T09:55:31;15.5;;;3.1;;
61675;SDS011;47574;52.090;5.244;2023-03-14T09:57:10;19.8;;;3.3;;
61675;SDS011;47574;52.090;5.244;2023-03-14T10:00:30;23.5;;;3.7;;
61675;SDS011;47574;52.090;5.244;2023-03-14T10:02:11;17.91;;;3.8;;
61675;SDS011;47574;52.090;5.244;2023-03-14T10:03:54;14.4;;;3.2;;
61675;SDS011;47574;52.090;5.244;2023-03-14T10:05:31;19.61;;;3.4;;
61675;SDS011;47574;52.090;5.244;2023-03-14T10:08:50;22.0;;;3.6;;
61675;SDS011;47574;52.090;5.244;2023-03-14T10:10:26;21.1;;;4.1;;
61675;SDS011;47574;52.090;5.244;2023-03-14T10:12:03;23.0;;;4.1;;
61675;SDS011;47574;52.090;5.244;2023-03-14T10:13:46;19.11;;;3.4;;
61675;SDS011;47574;52.090;5.244;2023-03-14T10:17:07;21.0;;;3.9;;
61675;SDS011;47574;52.090;5.244;2023-03-14T10:18:46;18.41;;;3.4;;
61675;SDS011;47574;52.090;5.244;2023-03-14T10:20:26;19.11;;;3.8;;
61675;SDS011;47574;52.090;5.244;2023-03-14T10:22:05;22.6;;;3.7;;
61675;SDS011;47574;52.090;5.244;2023-03-14T10:25:27;15.5;;;3.6;;
61675;SDS011;47574;52.090;5.244;2023-03-14T10:27:10;16.4;;;3.2;;
61675;SDS011;47574;52.090;5.244;2023-03-14T10:29:00;18.2;;;3.3;;
61675;SDS011;47574;52.090;5.244;2023-03-14T10:30:40;20.41;;;3.8;;
61675;SDS011;47574;52.090;5.244;2023-03-14T10:34:04;18.7;;;3.7;;
61675;SDS011;47574;52.090;5.244;2023-03-14T10:35:41;16.2;;;3.8;;
61675;SDS011;47574;52.090;5.244;2023-03-14T10:37:18;22.6;;;4.0;;
61675;SDS011;47574;52.090;5.244;2023-03-14T10:38:57;20.2;;;4.5;;
61675;SDS011;47574;52.090;5.244;2023-03-14T10:40:52;20.5;;;4.7;;
61675;SDS011;47574;52.090;5.244;2023-03-14T10:44:09;21.5;;;3.9;;
61675;SDS011;47574;52.090;5.244;2023-03-14T10:45:51;22.9;;;4.41;;
61675;SDS011;47574;52.090;5.244;2023-03-14T10:47:29;22.7;;;4.2;;
61675;SDS011;47574;52.090;5.244;2023-03-14T10:49:16;24.9;;;5.4;;
61675;SDS011;47574;52.090;5.244;2023-03-14T10:52:46;21.7;;;4.0;;
61675;SDS011;47574;52.090;5.244;2023-03-14T10:54:24;27.3;;;5.11;;
61675;SDS011;47574;52.090;5.244;2023-03-14T10:56:05;20.3;;;4.0;;
61675;SDS011;47574;52.090;5.244;2023-03-14T10:57:42;26.9;;;3.9;;
61675;SDS011;47574;52.090;5.244;2023-03-14T11:00:59;23.4;;;4.2;;
61675;SDS011;47574;52.090;5.244;2023-03-14T11:02:49;22.6;;;3.9;;
61675;SDS011;47574;52.090;5.244;2023-03-14T11:04:44;26.1;;;4.7;;
61675;SDS011;47574;52.090;5.244;2023-03-14T11:06:36;27.2;;;5.2;;
61675;SDS011;47574;52.090;5.244;2023-03-14T11:08:20;24.3;;;4.41;;
61675;SDS011;47574;52.090;5.244;2023-03-14T11:10:07;23.8;;;4.8;;
61675;SDS011;47574;52.090;5.244;2023-03-14T11:13:41;27.1;;;4.41;;
61675;SDS011;47574;52.090;5.244;2023-03-14T11:15:27;29.4;;;4.8;;
61675;SDS011;47574;52.090;5.244;2023-03-14T11:17:11;26.1;;;5.11;;
61675;SDS011;47574;52.090;5.244;2023-03-14T11:19:00;26.4;;;5.2;;
61675;SDS011;47574;52.090;5.244;2023-03-14T11:21:05;32.5;;;5.0;;
61675;SDS011;47574;52.090;5.244;2023-03-14T11:22:49;28.1;;;4.61;;
61675;SDS011;47574;52.090;5.244;2023-03-14T11:26:31;27.7;;;5.11;;
61675;SDS011;47574;52.090;5.244;2023-03-14T11:28:15;24.2;;;4.61;;
61675;SDS011;47574;52.090;5.244;2023-03-14T11:30:00;22.2;;;4.1;;
61675;SDS011;47574;52.090;5.244;2023-03-14T11:31:49;18.11;;;3.7;;
61675;SDS011;47574;52.090;5.244;2023-03-14T11:33:33;22.5;;;4.2;;
61675;SDS011;47574;52.090;5.244;2023-03-14T11:35:28;17.2;;;3.4;;
61675;SDS011;47574;52.090;5.244;2023-03-14T11:38:55;16.7;;;4.0;;
61675;SDS011;47574;52.090;5.244;2023-03-14T11:40:33;18.61;;;3.8;;
61675;SDS011;47574;52.090;5.244;2023-03-14T11:42:12;22.3;;;4.41;;
61675;SDS011;47574;52.090;5.244;2023-03-14T11:43:52;17.91;;;3.7;;
61675;SDS011;47574;52.090;5.244;2023-03-14T11:47:14;20.8;;;4.1;;
61675;SDS011;47574;52.090;5.244;2023-03-14T11:48:58;18.2;;;3.1;;
61675;SDS011;47574;52.090;5.244;2023-03-14T11:50:39;13.5;;;3.2;;
61675;SDS011;47574;52.090;5.244;2023-03-14T11:52:19;16.5;;;3.0;;
61675;SDS011;47574;52.090;5.244;2023-03-14T11:54:04;14.7;;;2.9;;
61675;SDS011;47574;52.090;5.244;2023-03-14T11:57:26;18.11;;;2.9;;
61675;SDS011;47574;52.090;5.244;2023-03-14T11:59:04;14.6;;;3.2;;
61675;SDS011;47574;52.090;5.244;2023-03-14T12:00:45;15.3;;;3.0;;
61675;SDS011;47574;52.090;5.244;2023-03-14T12:02:25;12.8;;;3.7;;
61675;SDS011;47574;52.090;5.244;2023-03-14T12:06:06;15.5;;;2.5;;
61675;SDS011;47574;52.090;5.244;2023-03-14T12:08:03;15.9;;;2.7;;
61675;SDS011;47574;52.090;5.244;2023-03-14T12:10:21;12.8;;;3.2;;
61675;SDS011;47574;52.090;5.244;2023-03-14T12:11:58;12.1;;;2.4;;
61675;SDS011;47574;52.090;5.244;2023-03-14T12:13:38;11.4;;;2.9;;
61675;SDS011;47574;52.090;5.244;2023-03-14T12:15:18;13.8;;;2.6;;
61675;SDS011;47574;52.090;5.244;2023-03-14T12:18:34;12.2;;;2.5;;
61675;SDS011;47574;52.090;5.244;2023-03-14T12:20:15;13.6;;;2.4;;
61675;SDS011;47574;52.090;5.244;2023-03-14T12:21:56;10.7;;;2.21;;
61675;SDS011;47574;52.090;5.244;2023-03-14T12:23:37;9.71;;;2.21;;
61675;SDS011;47574;52.090;5.244;2023-03-14T12:26:59;13.5;;;2.9;;
61675;SDS011;47574;52.090;5.244;2023-03-14T12:28:37;8.9;;;2.4;;
61675;SDS011;47574;52.090;5.244;2023-03-14T12:30:16;10.5;;;2.5;;
61675;SDS011;47574;52.090;5.244;2023-03-14T12:32:08;8.4;;;1.9;;
61675;SDS011;47574;52.090;5.244;2023-03-14T12:34:00;12.6;;;2.6;;
61675;SDS011;47574;52.090;5.244;2023-03-14T12:37:19;10.7;;;2.4;;
61675;SDS011;47574;52.090;5.244;2023-03-14T12:39:06;10.6;;;2.5;;
61675;SDS011;47574;52.090;5.244;2023-03-14T12:40:56;8.0;;;2.4;;
61675;SDS011;47574;52.090;5.244;2023-03-14T12:42:40;9.6;;;2.8;;
61675;SDS011;47574;52.090;5.244;2023-03-14T12:44:38;10.6;;;2.31;;
61675;SDS011;47574;52.090;5.244;2023-03-14T12:46:23;7.7;;;2.31;;
61675;SDS011;47574;52.090;5.244;2023-03-14T12:49:46;8.2;;;1.7;;
61675;SDS011;47574;52.090;5.244;2023-03-14T12:51:28;8.31;;;1.8;;
61675;SDS011;47574;52.090;5.244;2023-03-14T12:54:13;6.1;;;2.0;;
61675;SDS011;47574;52.090;5.244;2023-03-14T12:56:20;8.81;;;1.9;;
61675;SDS011;47574;52.090;5.244;2023-03-14T12:58:02;8.0;;;2.0;;
61675;SDS011;47574;52.090;5.244;2023-03-14T12:59:45;9.0;;;1.9;;
61675;SDS011;47574;52.090;5.244;2023-03-14T13:01:27;6.9;;;1.8;;
61675;SDS011;47574;52.090;5.244;2023-03-14T13:03:12;7.9;;;1.8;;
61675;SDS011;47574;52.090;5.244;2023-03-14T13:06:48;8.9;;;2.0;;
61675;SDS011;47574;52.090;5.244;2023-03-14T13:08:36;7.3;;;1.8;;
61675;SDS011;47574;52.090;5.244;2023-03-14T13:10:16;8.2;;;1.9;;
61675;SDS011;47574;52.090;5.244;2023-03-14T13:11:56;11.3;;;2.31;;
61675;SDS011;47574;52.090;5.244;2023-03-14T13:13:41;8.4;;;1.9;;
61675;SDS011;47574;52.090;5.244;2023-03-14T13:17:04;9.4;;;2.1;;
61675;SDS011;47574;52.090;5.244;2023-03-14T13:18:46;10.21;;;2.1;;
61675;SDS011;47574;52.090;5.244;2023-03-14T13:20:26;7.1;;;1.8;;
61675;SDS011;47574;52.090;5.244;2023-03-14T13:22:14;7.2;;;1.8;;
61675;SDS011;47574;52.090;5.244;2023-03-14T13:25:35;7.7;;;1.9;;
61675;SDS011;47574;52.090;5.244;2023-03-14T13:27:14;7.9;;;1.9;;
61675;SDS011;47574;52.090;5.244;2023-03-14T13:28:53;10.21;;;1.9;;
61675;SDS011;47574;52.090;5.244;2023-03-14T13:30:35;7.6;;;1.8;;
61675;SDS011;47574;52.090;5.244;2023-03-14T13:33:57;6.1;;;1.5;;
61675;SDS011;47574;52.090;5.244;2023-03-14T13:35:38;7.6;;;2.1;;